Time;durP1;ratioP1;P1;durP2;ratioP2;P2;SDS_P1;SDS_P2;PMS_P1;PMS_P2;Temp;Humidity;BMP_temperature;BMP_pressure;BME280_temperature;BME280_humidity;BME280_pressure;Samples;Min_cycle;Max_cycle;Signal;HPM_P1;HPM_P2
2021/12/04 00:06:41;;;;;;;1.60;1.50;;;;;;;9.07;75.47;98626.09;6202749;23;20008;-74
2021/12/04 00:09:09;;;;;;;1.60;1.50;;;;;;;9.04;74.94;98630.22;6197829;23;20012;-75
2021/12/04 00:11:41;;;;;;;1.60;1.50;;;;;;;9.05;75.49;98640.03;6225595;23;20032;-76
2021/12/04 00:14:12;;;;;;;1.77;1.67;;;;;;;8.84;74.97;98623.19;6175189;23;20051;-72
2021/12/04 00:16:37;;;;;;;2.15;2.05;;;;;;;8.81;75.19;98644.81;6220245;23;20020;-71
2021/12/04 00:19:10;;;;;;;2.60;2.40;;;;;;;8.63;75.70;98641.00;6221617;23;20439;-72
2021/12/04 00:21:39;;;;;;;2.95;2.75;;;;;;;8.54;75.54;98655.31;6223163;23;20011;-72
2021/12/04 00:24:05;;;;;;;2.65;2.45;;;;;;;8.35;75.66;98638.09;6195981;23;20051;-73
2021/12/04 00:26:31;;;;;;;3.60;3.30;;;;;;;8.20;76.07;98631.78;6196572;23;20024;-71
2021/12/04 00:28:56;;;;;;;2.05;1.95;;;;;;;8.20;75.86;98652.75;6197899;23;20005;-73
2021/12/04 00:31:26;;;;;;;2.13;2.03;;;;;;;8.13;76.44;98658.59;6197887;23;20015;-77
2021/12/04 00:33:51;;;;;;;7.53;2.38;;;;;;;8.09;76.87;98649.38;6197407;23;20017;-75
2021/12/04 00:52:01;;;;;;;1.80;1.70;;;;;;;8.15;76.91;98610.09;6177022;23;20061;-72
2021/12/04 00:54:32;;;;;;;6.20;2.95;;;;;;;8.35;76.65;98628.03;6161504;23;20403;-72
2021/12/04 00:57:47;;;;;;;1.85;1.75;;;;;;;8.41;77.17;98623.34;6221853;23;20091;-75
2021/12/04 01:00:42;;;;;;;;;;;;;;;;;;;;;
2021/12/04 01:03:24;;;;;;;;;;;;;;;;;;;;;
2021/12/04 01:05:50;;;;;;;2.88;2.10;;;;;;;8.46;77.46;98612.38;6179233;23;20035;-75
2021/12/04 01:08:27;;;;;;;2.58;2.47;;;;;;;8.56;77.00;98623.09;6224877;23;20009;-73
2021/12/04 01:11:01;;;;;;;2.92;2.80;;;;;;;8.53;77.36;98607.34;6199269;23;20439;-75
2021/12/04 01:13:27;;;;;;;2.67;2.58;;;;;;;8.41;76.73;98592.53;6225245;23;20067;-74
2021/12/04 01:15:53;;;;;;;4.10;2.85;;;;;;;8.52;77.11;98611.19;6224401;23;20005;-72
2021/12/04 01:18:29;;;;;;;;;;;;;;;;;;;;;
2021/12/04 01:20:57;;;;;;;2.78;2.67;;;;;;;8.52;77.29;98608.47;6196846;23;20032;-78
2021/12/04 01:23:31;;;;;;;2.90;2.80;;;;;;;8.40;77.52;98589.03;6197775;23;20005;-75
2021/12/04 01:26:06;;;;;;;;;;;;;;;;;;;;;
2021/12/04 01:28:41;;;;;;;5.13;3.20;;;;;;;8.46;77.20;98597.94;6227096;23;20024;-76
2021/12/04 01:31:12;;;;;;;3.67;3.47;;;;;;;8.34;77.45;98571.16;6201346;23;20009;-77
2021/12/04 01:33:38;;;;;;;3.72;3.40;;;;;;;8.58;77.52;98609.19;6222142;23;20074;-77
2021/12/04 01:36:14;;;;;;;;;;;;;;;;;;;;;
2021/12/04 01:38:54;;;;;;;2.58;2.47;;;;;;;8.68;78.00;98594.59;6227770;23;20047;-78
2021/12/04 01:41:23;;;;;;;2.42;2.22;;;;;;;8.69;77.49;98583.41;6200151;23;20012;-77
2021/12/04 01:47:53;;;;;;;2.35;2.25;;;;;;;8.83;77.56;98591.59;6191897;23;20445;-76
2021/12/04 01:50:33;;;;;;;2.75;2.65;;;;;;;8.94;77.02;98599.63;6181315;23;20016;-75
2021/12/04 01:53:02;;;;;;;3.15;2.83;;;;;;;8.84;76.94;98579.59;6195362;23;20004;-75
2021/12/04 01:55:50;;;;;;;2.75;2.65;;;;;;;9.01;77.64;98595.38;6193657;23;20058;-76
2021/12/04 01:58:16;;;;;;;2.20;2.10;;;;;;;9.01;77.40;98589.94;6196941;23;20027;-72
2021/12/04 02:00:51;;;;;;;2.25;2.10;;;;;;;8.98;77.21;98584.25;6223043;23;20017;-73
2021/12/04 02:03:20;;;;;;;2.67;2.58;;;;;;;9.05;77.34;98595.56;6196975;23;20084;-75
2021/12/04 02:05:48;;;;;;;2.20;2.10;;;;;;;9.12;77.13;98598.72;6195319;23;20009;-74
2021/12/04 02:08:16;;;;;;;2.42;2.33;;;;;;;9.09;76.75;98591.16;6196896;23;20027;-73
2021/12/04 02:10:53;;;;;;;;;;;;;;;;;;;;;
2021/12/04 02:13:18;;;;;;;3.17;3.08;;;;;;;9.16;77.24;98597.00;6220455;23;20075;-73
2021/12/04 02:15:55;;;;;;;;;;;;;;;;;;;;;
2021/12/04 02:18:24;;;;;;;5.00;4.38;;;;;;;9.20;76.82;98592.59;6195863;23;20075;-75
2021/12/04 02:20:50;;;;;;;4.30;3.13;;;;;;;9.09;77.07;98572.06;6194091;23;20091;-74
2021/12/04 02:23:16;;;;;;;3.40;3.20;;;;;;;9.20;77.10;98572.66;6220509;23;20004;-73
2021/12/04 02:25:41;;;;;;;5.38;4.88;;;;;;;9.17;77.15;98576.81;6192995;23;20036;-74
2021/12/04 02:28:10;;;;;;;3.55;3.38;;;;;;;9.06;77.41;98559.03;6193787;23;20063;-73
2021/12/04 02:30:40;;;;;;;4.57;4.18;;;;;;;9.11;77.12;98566.31;6220592;23;20013;-75
2021/12/04 02:33:21;;;;;;;4.20;4.00;;;;;;;9.13;77.53;98570.34;6222045;23;20031;-74
2021/12/04 02:36:01;;;;;;;4.07;3.88;;;;;;;9.06;77.99;98569.94;6194549;23;20300;-75
2021/12/04 02:38:27;;;;;;;4.75;4.55;;;;;;;9.13;77.57;98581.25;6194815;23;20000;-74
2021/12/04 02:40:55;;;;;;;4.30;4.00;;;;;;;9.05;77.69;98568.31;6195250;23;20016;-73
2021/12/04 02:43:21;;;;;;;3.83;3.63;;;;;;;9.02;77.30;98568.91;6220710;23;20004;-74
2021/12/04 02:45:47;;;;;;;4.25;4.05;;;;;;;9.06;77.78;98580.84;6195132;23;20005;-75
2021/12/04 02:48:16;;;;;;;3.97;3.75;;;;;;;8.87;77.58;98546.28;6193590;23;20039;-74
2021/12/04 02:50:44;;;;;;;5.03;4.65;;;;;;;8.98;77.95;98570.63;6221505;23;20004;-75
2021/12/04 02:53:10;;;;;;;4.25;4.05;;;;;;;8.95;77.90;98573.94;6194999;23;20012;-75
2021/12/04 02:55:38;;;;;;;5.40;4.43;;;;;;;8.91;78.15;98558.19;6194928;23;20059;-75
2021/12/04 02:58:03;;;;;;;4.78;4.47;;;;;;;8.78;78.13;98537.19;6191753;23;20013;-76
2021/12/04 03:00:29;;;;;;;4.93;4.63;;;;;;;8.80;78.13;98545.06;6222742;23;20020;-75
2021/12/04 03:02:56;;;;;;;5.10;4.80;;;;;;;8.81;78.27;98547.50;6194750;23;20095;-75
2021/12/04 03:05:28;;;;;;;4.93;4.57;;;;;;;8.74;78.77;98545.13;6221185;23;20531;-77
2021/12/04 03:08:06;;;;;;;;;;;;;;;;;;;;;
2021/12/04 03:10:35;;;;;;;3.40;3.28;;;;;;;8.81;78.90;98552.94;6222953;23;20028;-76
2021/12/04 03:13:09;;;;;;;6.25;5.78;;;;;;;8.75;78.53;98545.97;6170877;23;20004;-76
2021/12/04 03:15:40;;;;;;;6.75;6.07;;;;;;;8.75;78.52;98543.25;6222123;23;20016;-74
2021/12/04 03:18:09;;;;;;;5.40;5.10;;;;;;;8.78;78.87;98541.84;6190311;23;20087;-73
2021/12/04 03:20:42;;;;;;;6.18;5.68;;;;;;;8.63;78.64;98519.19;6192786;23;20011;-74
2021/12/04 03:23:54;;;;;;;5.50;5.10;;;;;;;8.75;78.96;98543.25;6188096;23;20004;-73
2021/12/04 03:26:08;;;;;;;5.18;4.97;;;;;;;8.80;79.08;98545.88;6201047;23;20035;-75
2021/12/04 03:28:33;;;;;;;4.88;4.60;;;;;;;8.69;79.10;98526.16;6216426;23;20612;-74
2021/12/04 03:42:03;;;;;;;4.32;4.13;;;;;;;8.71;79.49;98518.50;6216251;23;20102;-74
2021/12/04 03:44:31;;;;;;;5.10;4.90;;;;;;;8.63;79.46;98512.94;6194062;23;20069;-75
2021/12/04 03:46:59;;;;;;;4.68;4.47;;;;;;;8.76;79.65;98533.97;6192252;23;20015;-74
2021/12/04 03:49:24;;;;;;;4.22;4.03;;;;;;;8.69;79.25;98525.38;6194306;23;20004;-74
2021/12/04 03:51:50;;;;;;;4.43;4.22;;;;;;;8.67;79.55;98524.84;6191536;23;20515;-74
2021/12/04 03:54:16;;;;;;;4.57;4.28;;;;;;;8.66;79.76;98523.22;6195581;23;20086;-75
2021/12/04 03:56:44;;;;;;;4.13;3.83;;;;;;;8.78;79.25;98531.75;6194422;23;20008;-73
2021/12/04 03:59:13;;;;;;;4.55;4.25;;;;;;;8.76;79.37;98539.41;6195154;23;20036;-76
2021/12/04 04:01:38;;;;;;;5.93;5.53;;;;;;;8.66;79.46;98534.13;6221993;23;20008;-73
2021/12/04 04:04:06;;;;;;;5.75;4.72;;;;;;;8.67;79.64;98535.75;6193386;23;20066;-74
2021/12/04 04:06:33;;;;;;;4.63;4.38;;;;;;;8.62;79.92;98525.75;6192414;23;20145;-74
2021/12/04 04:09:03;;;;;;;5.88;5.38;;;;;;;8.71;79.20;98542.22;6189758;23;20088;-73
2021/12/04 04:11:36;;;;;;;5.95;5.25;;;;;;;8.62;79.38;98530.41;6169929;23;20092;-73
2021/12/04 04:14:03;;;;;;;5.70;5.30;;;;;;;8.60;80.13;98535.31;6191295;23;20009;-73
2021/12/04 04:16:30;;;;;;;6.93;5.32;;;;;;;8.56;80.09;98535.94;6191197;23;20087;-74
2021/12/04 04:18:58;;;;;;;5.88;5.30;;;;;;;8.56;80.20;98529.69;6216625;23;20323;-73
2021/12/04 04:21:41;;;;;;;7.65;5.50;;;;;;;8.50;79.90;98520.78;6191766;23;20015;-73
2021/12/04 04:24:08;;;;;;;5.47;5.18;;;;;;;8.54;80.63;98527.25;6217680;23;19992;-72
2021/12/04 04:26:34;;;;;;;4.60;4.40;;;;;;;8.52;80.49;98518.56;6192945;23;20015;-72
2021/12/04 04:29:00;;;;;;;6.35;4.75;;;;;;;8.48;80.53;98495.75;6218162;23;20001;-73
2021/12/04 04:31:27;;;;;;;5.20;4.90;;;;;;;8.45;80.40;98501.00;6217740;23;20059;-73
2021/12/04 04:34:00;;;;;;;4.53;4.22;;;;;;;8.47;80.82;98510.47;6192948;23;20523;-75
2021/12/04 04:39:19;;;;;;;4.28;4.07;;;;;;;8.51;80.78;98527.84;6230504;23;20434;-74
2021/12/04 05:11:44;;;;;;;0.52;0.52;;;;;;;8.28;80.56;98524.13;6197390;23;20044;-73
2021/12/04 05:14:17;;;;;;;0.60;0.60;;;;;;;8.35;80.92;98542.78;6220926;23;20033;-76
2021/12/04 05:19:43;;;;;;;2.15;0.80;;;;;;;8.35;80.47;98534.63;6152727;23;20374;-76
2021/12/04 05:22:11;;;;;;;0.85;0.85;;;;;;;8.37;80.45;98532.41;6204371;23;20100;-75
2021/12/04 05:24:40;;;;;;;0.77;0.77;;;;;;;8.38;80.76;98544.91;6177948;23;20012;-75
2021/12/04 05:27:08;;;;;;;13.57;1.30;;;;;;;8.31;80.63;98544.47;6202286;23;20004;-75
2021/12/04 05:29:33;;;;;;;2.17;1.50;;;;;;;8.34;80.57;98550.16;6193826;23;20032;-76
2021/12/04 05:32:03;;;;;;;2.30;1.38;;;;;;;8.34;80.77;98549.34;6192229;23;20008;-76
2021/12/04 05:34:29;;;;;;;1.50;1.38;;;;;;;8.34;80.08;98554.81;6194908;23;20020;-75
2021/12/04 05:37:04;;;;;;;2.22;1.15;;;;;;;8.45;80.05;98560.91;6195414;23;20186;-77
2021/12/04 05:39:29;;;;;;;1.52;1.33;;;;;;;8.58;80.34;98581.16;6171621;23;20019;-76
2021/12/04 05:41:57;;;;;;;5.70;1.38;;;;;;;8.57;79.78;98580.31;6221221;23;20044;-75
2021/12/04 05:44:25;;;;;;;2.35;1.50;;;;;;;8.57;79.85;98577.59;6222610;23;20004;-76
2021/12/04 05:46:58;;;;;;;1.08;1.08;;;;;;;8.58;79.44;98572.97;6196225;23;20050;-76
2021/12/04 05:55:17;;;;;;;2.63;1.65;;;;;;;8.60;78.38;98582.47;6199456;23;20056;-77
2021/12/04 05:57:43;;;;;;;2.53;1.08;;;;;;;8.59;78.08;98594.47;6171217;23;20067;-77
2021/12/04 06:00:16;;;;;;;1.92;1.23;;;;;;;8.56;78.15;98605.97;6169485;23;20020;-76
2021/12/04 06:02:41;;;;;;;1.77;1.00;;;;;;;8.47;77.08;98614.00;6194590;23;20038;-75
2021/12/04 06:05:07;;;;;;;1.13;0.90;;;;;;;8.35;76.42;98610.88;6194268;23;20001;-76
2021/12/04 06:07:33;;;;;;;1.60;0.50;;;;;;;8.29;75.79;98612.06;6193443;23;20015;-75
2021/12/04 06:09:58;;;;;;;4.95;1.05;;;;;;;8.18;75.51;98601.31;6220557;23;20019;-75
2021/12/04 06:12:24;;;;;;;2.13;0.70;;;;;;;8.08;74.71;98600.66;6194404;23;20396;-75
2021/12/04 06:14:59;;;;;;;;;;;;;;;;;;;;;
2021/12/04 06:17:40;;;;;;;;;;;;;;;;;;;;;
2021/12/04 06:22:56;;;;;;;2.05;0.70;;;;;;;7.96;74.88;98631.84;6218302;23;20059;-74
2021/12/04 06:25:26;;;;;;;1.75;1.05;;;;;;;7.92;74.01;98640.91;6167744;23;20004;-74
2021/12/04 06:27:52;;;;;;;2.42;0.77;;;;;;;7.88;73.83;98642.56;6219888;23;20009;-74
2021/12/04 06:30:22;;;;;;;4.15;0.60;;;;;;;7.76;74.52;98632.91;6189501;23;20019;-76
2021/12/04 06:32:51;;;;;;;1.83;0.70;;;;;;;7.69;74.34;98627.00;6167197;23;20042;-74
2021/12/04 06:35:18;;;;;;;6.97;0.98;;;;;;;7.64;74.53;98635.25;6191405;23;20027;-75
2021/12/04 06:37:43;;;;;;;1.75;0.70;;;;;;;7.56;74.30;98627.72;6166684;23;20347;-75
2021/12/04 06:40:14;;;;;;;2.83;0.60;;;;;;;7.56;73.95;98649.47;6219059;23;20039;-77
2021/12/04 06:42:40;;;;;;;3.40;0.73;;;;;;;7.50;73.12;98646.84;6166173;23;20009;-74
2021/12/04 06:45:10;;;;;;;6.50;0.73;;;;;;;7.31;73.20;98643.22;6193749;23;20012;-74
2021/12/04 06:47:45;;;;;;;2.25;0.65;;;;;;;7.18;73.46;98641.19;6194735;23;20012;-74
2021/12/04 06:50:27;;;;;;;3.83;0.63;;;;;;;7.07;73.71;98630.41;6193227;23;20009;-75
2021/12/04 06:52:52;;;;;;;0.73;0.50;;;;;;;7.07;73.56;98644.00;6221836;23;20000;-74
2021/12/04 06:55:22;;;;;;;0.93;0.43;;;;;;;6.94;73.60;98639.22;6194982;23;20064;-75
2021/12/04 06:57:48;;;;;;;2.08;0.40;;;;;;;6.90;73.11;98663.44;6194015;23;20009;-74
2021/12/04 07:00:16;;;;;;;3.17;0.65;;;;;;;6.69;72.96;98649.22;6148239;23;20034;-75
2021/12/04 07:02:44;;;;;;;4.68;1.05;;;;;;;6.69;73.62;98654.66;6221470;23;20017;-77
2021/12/04 07:05:12;;;;;;;2.70;0.75;;;;;;;6.53;74.03;98650.44;6194708;23;19997;-75
2021/12/04 07:07:40;;;;;;;6.28;0.80;;;;;;;6.54;73.93;98665.63;6217230;23;20001;-76
2021/12/04 07:10:06;;;;;;;12.23;1.15;;;;;;;6.46;73.24;98667.84;6191255;23;20569;-75
2021/12/04 07:12:31;;;;;;;6.97;0.80;;;;;;;6.35;73.58;98655.44;6194979;23;20007;-74
2021/12/04 07:14:57;;;;;;;6.70;0.63;;;;;;;6.38;73.87;98679.31;6194399;23;20004;-74
2021/12/04 07:17:27;;;;;;;5.60;0.73;;;;;;;6.22;74.21;98675.03;6191871;23;20008;-73
2021/12/04 07:19:53;;;;;;;4.13;0.95;;;;;;;6.15;73.91;98677.25;6197561;23;20025;-73
2021/12/04 07:22:18;;;;;;;2.28;0.98;;;;;;;6.15;74.16;98688.09;6178873;23;20027;-75
2021/12/04 07:24:44;;;;;;;3.97;0.52;;;;;;;6.08;74.35;98672.94;6195779;23;20047;-74
2021/12/04 07:27:17;;;;;;;3.25;1.17;;;;;;;6.14;72.98;98686.50;6219899;23;20005;-75
2021/12/04 07:29:42;;;;;;;4.82;0.93;;;;;;;6.08;74.09;98689.22;6170460;23;20339;-75
2021/12/04 07:32:08;;;;;;;1.17;0.63;;;;;;;6.10;74.13;98703.34;6193428;23;20025;-74
2021/12/04 07:38:00;;;;;;;0.60;0.47;;;;;;;5.92;74.26;98672.16;6222164;23;20027;-78
2021/12/04 07:41:23;;;;;;;6.65;1.10;;;;;;;6.00;74.28;98702.56;6170977;23;20335;-76
2021/12/04 07:43:51;;;;;;;9.68;0.93;;;;;;;5.73;73.07;98669.25;6193221;23;20088;-76
2021/12/04 07:46:17;;;;;;;3.88;1.00;;;;;;;5.83;72.77;98692.84;6195774;23;20012;-75
2021/12/04 07:48:42;;;;;;;3.92;0.93;;;;;;;5.77;72.28;98700.19;6220261;23;20000;-76
2021/12/04 07:51:14;;;;;;;8.73;1.25;;;;;;;5.70;72.78;98707.78;6222084;23;20075;-75
2021/12/04 07:53:47;;;;;;;4.68;0.63;;;;;;;5.64;72.02;98706.19;6194438;23;20686;-75
2021/12/04 07:56:14;;;;;;;11.73;1.38;;;;;;;5.60;72.50;98707.81;6221165;23;20067;-75
2021/12/04 07:58:42;;;;;;;3.17;0.98;;;;;;;5.52;72.39;98708.38;6195645;23;20035;-76
2021/12/04 08:01:08;;;;;;;11.13;1.80;;;;;;;5.54;72.42;98727.91;6170829;23;20561;-76
2021/12/04 08:03:55;;;;;;;9.15;1.10;;;;;;;5.46;72.55;98732.00;6221671;23;20047;-77
2021/12/04 08:13:28;;;;;;;12.50;0.90;;;;;;;5.32;71.32;98768.88;6224216;23;20009;-78
2021/12/04 08:15:54;;;;;;;1.95;0.70;;;;;;;5.15;70.89;98755.59;6192995;23;20000;-79
2021/12/04 08:19:14;;;;;;;5.38;1.27;;;;;;;5.11;70.81;98740.94;6224891;23;20388;-79
2021/12/04 08:22:05;;;;;;;5.40;0.80;;;;;;;5.03;71.12;98740.41;6198412;23;20011;-79
2021/12/04 08:25:33;;;;;;;7.25;1.00;;;;;;;5.28;70.94;98784.84;6227957;23;20004;-79
2021/12/04 08:28:35;;;;;;;;;;;;;;;;;;;;;
2021/12/04 08:34:10;;;;;;;5.50;1.45;;;;;;;5.11;69.46;98781.59;6143267;23;20006;-79
2021/12/04 08:36:36;;;;;;;7.15;0.93;;;;;;;5.12;69.87;98777.81;6195439;23;20411;-79
2021/12/04 08:39:04;;;;;;;6.68;0.73;;;;;;;5.23;69.85;98803.84;6194910;23;20043;-75
2021/12/04 08:41:32;;;;;;;8.82;1.23;;;;;;;5.12;69.05;98794.06;6220479;23;20005;-75
2021/12/04 08:44:02;;;;;;;10.13;1.33;;;;;;;5.15;68.60;98799.75;6194194;23;20004;-76
2021/12/04 08:46:27;;;;;;;11.68;1.60;;;;;;;5.16;68.13;98800.59;6219906;23;20004;-77
2021/12/04 08:48:58;;;;;;;8.27;1.05;;;;;;;5.23;68.09;98801.13;6196731;23;20009;-78
2021/12/04 08:51:26;;;;;;;3.50;1.13;;;;;;;5.36;67.47;98811.44;6171840;23;20008;-77
2021/12/04 08:53:52;;;;;;;4.88;0.77;;;;;;;5.39;66.53;98824.44;6195501;23;20067;-76
2021/12/04 08:56:19;;;;;;;1.52;0.70;;;;;;;5.49;66.89;98817.38;6195239;23;20012;-77
2021/12/04 08:58:44;;;;;;;4.68;1.05;;;;;;;5.54;66.67;98820.91;6194800;23;20009;-77
2021/12/04 09:01:22;;;;;;;5.88;1.20;;;;;;;5.49;66.50;98825.50;6193891;23;20435;-76
2021/12/04 09:03:48;;;;;;;4.40;0.95;;;;;;;5.55;67.11;98840.72;6194333;23;20005;-77
2021/12/04 09:06:19;;;;;;;4.95;0.68;;;;;;;5.56;66.54;98845.03;6221553;23;20086;-76
2021/12/04 09:08:45;;;;;;;7.13;1.55;;;;;;;5.49;66.73;98828.22;6195310;23;20092;-76
2021/12/04 09:11:26;;;;;;;14.27;2.15;;;;;;;5.55;66.73;98829.88;6195493;23;20005;-76
2021/12/04 09:13:53;;;;;;;10.70;1.00;;;;;;;5.42;66.11;98826.59;6221267;23;20062;-77
2021/12/04 09:16:19;;;;;;;4.85;1.23;;;;;;;5.42;66.93;98818.47;6195196;23;20004;-77
2021/12/04 09:18:46;;;;;;;3.47;0.75;;;;;;;5.50;67.25;98846.13;6193243;23;20015;-75
2021/12/04 09:21:15;;;;;;;8.18;1.00;;;;;;;5.53;67.89;98840.16;6195904;23;20005;-76
2021/12/04 09:23:46;;;;;;;12.35;1.90;;;;;;;5.65;68.09;98838.00;6223370;23;20391;-75
2021/12/04 09:26:25;;;;;;;16.50;1.85;;;;;;;6.05;66.75;98819.25;6224954;23;20001;-76
2021/12/04 09:29:42;;;;;;;3.70;0.50;;;;;;;6.85;64.60;98814.81;6196678;23;20127;-78
2021/12/04 09:34:59;;;;;;;1.77;1.27;;;;;;;8.48;60.32;98838.97;6224636;23;20505;-78
2021/12/04 10:00:55;;;;;;;4.00;0.90;;;;;;;11.70;48.92;98870.09;6226409;23;20051;-78
2021/12/04 10:14:24;;;;;;;2.53;0.55;;;;;;;12.36;46.83;98862.09;6201475;23;20008;-77
2021/12/04 10:17:31;;;;;;;4.50;0.68;;;;;;;12.49;45.31;98841.19;6173803;23;20043;-78
2021/12/04 10:34:23;;;;;;;7.30;0.68;;;;;;;14.00;41.42;98824.47;6237042;23;20035;-76
2021/12/04 10:36:53;;;;;;;0.80;0.40;;;;;;;14.44;41.66;98839.66;6179176;23;20056;-76
2021/12/04 10:39:26;;;;;;;4.47;0.75;;;;;;;14.89;40.25;98863.06;6205080;23;20005;-78
2021/12/04 10:41:58;;;;;;;3.35;0.63;;;;;;;15.14;40.11;98872.31;6204032;23;20011;-77
2021/12/04 10:44:38;;;;;;;2.55;0.80;;;;;;;14.95;38.34;98841.69;6222789;23;20004;-78
2021/12/04 10:47:11;;;;;;;3.78;0.88;;;;;;;14.87;39.18;98839.81;6195319;23;20035;-77
2021/12/04 10:55:19;;;;;;;6.43;0.93;;;;;;;15.66;36.64;98849.06;6231616;23;20275;-76
2021/12/04 11:25:33;;;;;;;8.60;0.52;;;;;;;15.98;35.05;98832.88;6228186;23;20103;-72
2021/12/04 11:39:39;;;;;;;7.47;0.65;;;;;;;15.98;34.84;98838.41;6183658;23;20018;-76
2021/12/04 11:42:11;;;;;;;0.63;0.38;;;;;;;15.95;35.05;98833.56;6193330;23;20405;-75
2021/12/04 11:47:13;;;;;;;3.47;0.95;;;;;;;16.55;34.35;98845.00;6227600;23;20015;-78
2021/12/04 11:49:39;;;;;;;3.72;0.68;;;;;;;16.61;33.79;98833.75;6194454;23;20008;-78
2021/12/04 11:52:14;;;;;;;7.45;0.90;;;;;;;16.67;34.11;98818.56;6190666;23;20043;-75
2021/12/04 11:54:59;;;;;;;6.18;1.00;;;;;;;16.85;32.68;98824.66;6217426;23;20028;-77
2021/12/04 11:57:41;;;;;;;7.55;2.42;;;;;;;16.84;33.45;98840.41;6189878;23;20313;-77
2021/12/04 12:00:25;;;;;;;4.07;0.82;;;;;;;16.92;33.53;98813.84;6193478;23;20012;-76
2021/12/04 12:03:07;;;;;;;6.32;0.90;;;;;;;16.80;32.66;98836.72;6167038;23;20019;-75
2021/12/04 12:05:44;;;;;;;5.22;1.08;;;;;;;16.73;33.20;98837.34;6217477;23;20001;-77
2021/12/04 12:08:21;;;;;;;1.85;0.73;;;;;;;16.55;32.55;98800.88;6192067;23;20435;-78
2021/12/04 12:10:54;;;;;;;2.95;0.55;;;;;;;16.33;32.45;98815.94;6216389;23;20083;-76
2021/12/04 12:13:47;;;;;;;3.70;0.45;;;;;;;15.95;32.83;98817.03;6217429;23;20000;-76
2021/12/04 12:16:25;;;;;;;3.03;0.75;;;;;;;15.62;33.92;98822.53;6202091;23;20004;-75
2021/12/04 12:19:06;;;;;;;9.68;0.98;;;;;;;15.65;34.05;98819.91;6215877;23;20043;-75
2021/12/04 12:22:02;;;;;;;3.20;0.60;;;;;;;15.83;34.26;98822.53;6215383;23;20031;-76
2021/12/04 12:37:51;;;;;;;8.05;0.98;;;;;;;16.77;32.84;98840.19;6103853;23;20121;-77
2021/12/04 12:40:19;;;;;;;1.27;0.70;;;;;;;16.98;32.34;98822.72;6102221;23;20013;-75
2021/12/04 12:42:48;;;;;;;2.58;0.57;;;;;;;17.31;32.53;98846.56;6192289;23;20016;-77
2021/12/04 12:45:29;;;;;;;3.63;0.65;;;;;;;17.82;32.04;98854.34;6209181;23;20020;-76
2021/12/04 12:48:14;;;;;;;5.95;1.52;;;;;;;18.05;31.26;98846.31;6230024;23;20005;-76
2021/12/04 12:50:47;;;;;;;3.10;0.80;;;;;;;18.07;30.89;98849.50;6230238;23;20008;-78
2021/12/04 12:53:17;;;;;;;6.63;0.80;;;;;;;18.03;30.84;98851.38;6217972;23;20408;-75
2021/12/04 12:55:45;;;;;;;4.63;0.80;;;;;;;17.96;30.04;98855.56;6190143;23;20013;-76
2021/12/04 12:58:38;;;;;;;7.10;0.63;;;;;;;17.59;30.30;98858.44;6215916;23;20457;-75
2021/12/04 13:13:01;;;;;;;4.78;0.82;;;;;;;16.37;32.96;98862.97;6222503;23;20015;-76
2021/12/04 13:15:33;;;;;;;3.95;0.85;;;;;;;16.79;31.34;98848.91;6188718;23;20036;-77
2021/12/04 13:18:32;;;;;;;;;;;;;;;;;;;;;
2021/12/04 13:21:20;;;;;;;3.28;0.70;;;;;;;17.62;31.04;98830.13;6195556;23;20040;-74
2021/12/04 13:23:54;;;;;;;3.33;1.15;;;;;;;18.04;30.78;98848.25;6215010;23;20043;-77
2021/12/04 13:26:29;;;;;;;5.10;0.82;;;;;;;18.29;30.37;98848.09;6188198;23;20040;-76
2021/12/04 13:28:58;;;;;;;3.45;1.42;;;;;;;18.66;30.58;98826.47;6215073;23;20494;-72
2021/12/04 13:31:24;;;;;;;2.33;1.10;;;;;;;19.36;29.39;98858.16;6190743;23;20020;-73
2021/12/04 13:33:54;;;;;;;7.82;0.70;;;;;;;19.42;28.46;98850.34;6211952;23;20005;-72
2021/12/04 13:36:24;;;;;;;14.10;1.02;;;;;;;19.05;28.76;98827.78;6189397;23;20009;-73
2021/12/04 13:39:00;;;;;;;11.25;1.05;;;;;;;18.69;29.16;98829.69;6216035;23;20309;-74
2021/12/04 13:41:29;;;;;;;5.40;0.93;;;;;;;18.28;29.07;98816.03;6216601;23;20311;-73
2021/12/04 13:43:57;;;;;;;7.63;1.20;;;;;;;17.98;29.80;98818.47;6190742;23;20001;-73
2021/12/04 13:46:24;;;;;;;4.43;0.80;;;;;;;17.51;30.30;98842.00;6220793;23;20016;-74
2021/12/04 13:48:58;;;;;;;8.68;1.42;;;;;;;17.17;30.74;98800.81;6218729;23;20005;-73
2021/12/04 13:51:23;;;;;;;6.93;1.33;;;;;;;17.11;30.47;98799.44;6191088;23;20309;-73
2021/12/04 13:53:49;;;;;;;5.57;0.80;;;;;;;16.73;30.97;98812.50;6191571;23;20016;-73
2021/12/04 13:56:22;;;;;;;1.42;0.50;;;;;;;16.67;31.61;98808.34;6164874;23;20015;-71
2021/12/04 13:58:59;;;;;;;5.90;0.85;;;;;;;16.77;31.55;98823.63;6214931;23;20435;-73
2021/12/04 14:01:41;;;;;;;5.00;1.05;;;;;;;16.73;31.33;98822.69;6215242;23;20017;-73
2021/12/04 14:04:11;;;;;;;4.75;1.05;;;;;;;16.46;31.90;98793.88;6193328;23;20005;-71
2021/12/04 14:06:42;;;;;;;3.13;0.70;;;;;;;16.49;32.47;98807.78;6191416;23;20034;-75
2021/12/04 14:09:18;;;;;;;;;;;;;;;;;;;;;
2021/12/04 14:11:56;;;;;;;5.32;0.75;;;;;;;16.54;32.71;98804.81;6218092;23;20056;-73
2021/12/04 14:14:24;;;;;;;4.22;0.88;;;;;;;16.57;32.82;98806.88;6195623;23;20072;-74
2021/12/04 14:16:52;;;;;;;4.82;1.33;;;;;;;16.21;33.69;98791.91;6191245;23;20032;-74
2021/12/04 14:19:27;;;;;;;4.05;0.90;;;;;;;15.65;34.40;98791.53;6220828;23;20004;-73
2021/12/04 14:22:15;;;;;;;6.15;1.13;;;;;;;14.63;36.82;98784.25;6215379;23;19996;-72
2021/12/04 14:24:47;;;;;;;3.78;1.17;;;;;;;13.77;38.58;98791.72;6218568;23;20007;-73
2021/12/04 14:27:21;;;;;;;2.75;0.98;;;;;;;13.08;40.01;98779.66;6212289;23;20004;-74
2021/12/04 14:29:58;;;;;;;5.22;1.45;;;;;;;13.07;40.73;98789.03;6180980;23;20111;-74
2021/12/04 14:32:28;;;;;;;2.47;0.80;;;;;;;13.72;40.07;98794.63;6185834;23;20004;-75
2021/12/04 14:35:09;;;;;;;12.35;1.65;;;;;;;14.20;38.27;98789.97;6216263;23;20015;-74
2021/12/04 14:37:38;;;;;;;12.63;1.10;;;;;;;14.41;37.05;98779.00;6215702;23;20061;-72
2021/12/04 14:40:08;;;;;;;11.45;1.35;;;;;;;14.49;36.93;98791.91;6216123;23;20005;-73
2021/12/04 14:42:36;;;;;;;2.58;0.88;;;;;;;14.58;35.91;98816.63;6190920;23;20426;-74
2021/12/04 14:45:17;;;;;;;3.38;0.60;;;;;;;14.23;36.32;98794.78;6189766;23;20048;-73
2021/12/04 14:47:48;;;;;;;6.65;0.88;;;;;;;13.47;36.96;98796.31;6192032;23;20007;-76
2021/12/04 14:50:17;;;;;;;0.93;0.47;;;;;;;12.76;38.59;98792.69;6187024;23;20011;-73
2021/12/04 14:52:52;;;;;;;2.75;1.13;;;;;;;11.78;40.14;98800.06;6190683;23;20114;-72
2021/12/04 14:55:22;;;;;;;12.90;1.10;;;;;;;10.81;42.88;98779.41;6183264;23;20065;-75
2021/12/04 14:57:48;;;;;;;2.40;0.90;;;;;;;10.27;44.54;98799.06;6189446;23;20004;-74
2021/12/04 15:00:14;;;;;;;7.63;1.35;;;;;;;10.14;45.86;98794.41;6216752;22;20066;-74
2021/12/04 15:02:40;;;;;;;11.43;0.73;;;;;;;10.15;46.53;98779.66;6215621;23;20046;-74
2021/12/04 15:05:08;;;;;;;12.90;1.27;;;;;;;10.33;46.20;98786.13;6220381;23;20509;-74
2021/12/04 15:07:34;;;;;;;7.78;0.95;;;;;;;10.52;46.05;98790.69;6194319;23;20012;-74
2021/12/04 15:10:18;;;;;;;2.92;1.00;;;;;;;10.71;46.15;98768.69;6220748;23;20107;-74
2021/12/04 15:12:44;;;;;;;9.27;0.93;;;;;;;10.94;45.54;98794.94;6195618;23;20003;-77
2021/12/04 15:15:14;;;;;;;11.43;1.00;;;;;;;10.77;45.61;98800.25;6196926;23;20004;-78
2021/12/04 15:17:52;;;;;;;4.03;1.42;;;;;;;10.22;46.27;98790.97;6226024;23;20024;-77
2021/12/04 15:20:27;;;;;;;7.03;1.38;;;;;;;9.75;48.44;98809.31;6174776;23;20012;-80
2021/12/04 15:22:57;;;;;;;4.90;1.07;;;;;;;8.89;50.24;98780.41;6199702;23;20016;-78
2021/12/04 15:25:26;;;;;;;4.55;1.02;;;;;;;8.64;51.77;98814.28;6196302;23;20004;-77
2021/12/04 15:27:51;;;;;;;11.27;1.00;;;;;;;8.26;52.83;98803.28;6195321;23;20008;-75
2021/12/04 15:30:19;;;;;;;3.53;0.50;;;;;;;7.95;52.98;98798.19;6220549;23;20058;-75
2021/12/04 15:32:45;;;;;;;8.32;1.05;;;;;;;7.84;53.87;98820.06;6219326;23;20004;-76
2021/12/04 15:35:41;;;;;;;6.82;1.17;;;;;;;7.59;53.55;98828.44;6195778;23;20004;-78
2021/12/04 15:38:19;;;;;;;12.95;1.15;;;;;;;7.42;53.81;98823.44;6220833;23;20011;-77
2021/12/04 15:41:06;;;;;;;2.72;0.65;;;;;;;7.15;54.15;98803.78;6170667;23;20008;-77
2021/12/04 15:49:23;;;;;;;4.70;0.70;;;;;;;6.93;55.25;98816.97;6230265;23;20075;-79
2021/12/04 15:54:39;;;;;;;4.22;0.85;;;;;;;6.84;56.69;98834.97;6197557;23;20015;-78
2021/12/04 15:57:14;;;;;;;3.97;0.85;;;;;;;6.66;57.14;98818.19;6193959;23;20008;-78
2021/12/04 15:59:50;;;;;;;9.38;0.55;;;;;;;6.58;57.24;98821.50;6168969;23;20099;-76
2021/12/04 16:02:22;;;;;;;12.45;1.45;;;;;;;6.60;57.65;98830.16;6218554;23;20095;-79
2021/12/04 16:04:51;;;;;;;7.60;0.75;;;;;;;6.42;57.66;98813.41;6212379;23;20070;-77